• Join FlightAware (Why Join?)
  • Login
  • US Flag 
10:37AM EDT


 

Airport Tracker/Info


-or-


 

Live Flight TrackerFlight Track Log ✈ DAL268 ✈ 02-Oct-2013 ✈ KSFO - KJFK

Flight Track Log - Related Links

Times and Time Zones

All times are in EDT time to prevent confusion due to time zone crossing. See the DAL268 flight status page for this flight to view local times or setup timezone preferences in your user account.

Time Position Orientation Groundspeed Altitude Reporting Facility
EDT Latitude Longitude Course Direction KTS MPH feet Rate Location/Type
02:26PM 37.6090 -122.3840 180° South  Level FlightAware
02:29PM 37.6892 -122.1159 67° East  Level FlightAware Approximate
02:31PM 37.6987 -122.0871 67° East  Level FlightAware Approximate
02:32PM 37.7529 -121.9464 65° Northeast  Level FlightAware Approximate
02:33PM 37.8000 -121.8029 90° East  Level FlightAware Approximate
02:34PM 37.8472 -121.6584 67° East  Level FlightAware Approximate
02:35PM 37.6060 -122.3820 90° East  Level FlightAware
02:37PM 37.6872 -122.1218 67° East  Level FlightAware Approximate
02:38PM 37.7404 -121.9807 65° Northeast  Level FlightAware Approximate
02:38PM 37.6100 -122.3790 28° Northeast 86 99  Level FlightAware
02:38PM 37.6250 -122.3690 28° Northeast 166 191 200 1,080 Climbing FlightAware
02:39PM 37.6342 -122.3630 27° Northeast 177 204 700 2,280 Climbing FlightAware ADS-B
02:39PM 37.6397 -122.3580 36° Northeast 181 208 1,000 2,280 Climbing FlightAware ADS-B
02:39PM 37.6428 -122.3550 37° Northeast 184 212 1,200 1,740 Climbing FlightAware ADS-B
02:39PM 37.6501 -122.3450 47° Northeast 200 230 1,500 1,500 Climbing FlightAware ADS-B
02:39PM 37.6601 -122.3310 48° Northeast 217 250 1,900 1,800 Climbing FlightAware ADS-B
02:40PM 37.6707 -122.3170 46° Northeast 235 270 2,400 2,160 Climbing FlightAware ADS-B
02:40PM 37.6824 -122.3000 49° Northeast 251 289 3,000 2,280 Climbing FlightAware ADS-B
02:40PM 37.6956 -122.2820 47° Northeast 267 307 3,600 2,760 Climbing FlightAware ADS-B
02:40PM 37.7087 -122.2630 49° Northeast 269 310 4,500 3,300 Climbing FlightAware ADS-B
02:41PM 37.7279 -122.2350 49° Northeast 267 307 5,800 3,120 Climbing FlightAware ADS-B
02:41PM 37.7409 -122.2150 51° Northeast 272 313 6,600 3,000 Climbing FlightAware ADS-B
02:41PM 37.7533 -122.1950 52° Northeast 281 323 7,400 3,060 Climbing FlightAware ADS-B
02:41PM 37.7629 -122.1760 57° Northeast 284 327 8,100 3,060 Climbing FlightAware ADS-B
02:42PM 37.7710 -122.1550 64° Northeast 292 336 8,800 2,880 Climbing FlightAware ADS-B
02:42PM 37.7772 -122.1300 73° East 300 345 9,500 2,700 Climbing FlightAware ADS-B
02:42PM 37.7888 -122.0850 72° East 308 354 10,700 1,860 Climbing FlightAware ADS-B
02:43PM 37.8034 -122.0300 71° East 345 397 11,300 1,140 Climbing FlightAware ADS-B
02:44PM 37.8241 -121.9540 71° East 377 434 12,000 1,800 Climbing FlightAware ADS-B
02:44PM 37.8467 -121.8700 71° East 398 458 13,600 2,340 Climbing FlightAware ADS-B
02:45PM 37.8647 -121.8030 71° East 409 471 14,700 2,220 Climbing FlightAware ADS-B
02:45PM 37.8856 -121.7270 71° East 413 475 16,000 2,040 Climbing FlightAware ADS-B
02:46PM 37.9046 -121.6550 71° East 429 494 16,900 1,860 Climbing FlightAware ADS-B
02:46PM 37.9232 -121.5820 72° East 439 505 17,900 1,920 Climbing FlightAware ADS-B
02:47PM 37.9440 -121.5000 72° East 447 514 19,000 1,980 Climbing FlightAware
02:47PM 37.9600 -121.4400 71° East 451 519 19,800 1,920 Climbing FlightAware ADS-B
02:48PM 37.9890 -121.3290 72° East 460 529 21,200 1,800 Climbing FlightAware
02:49PM 38.0150 -121.2320 71° East 468 539 22,300 1,680 Climbing FlightAware
02:49PM 38.0370 -121.1470 72° East 474 545 23,200 1,680 Climbing FlightAware
02:50PM 38.0630 -121.0480 72° East 476 548 24,300 1,680 Climbing FlightAware
02:50PM 38.0880 -120.9510 72° East 482 555 25,300 1,620 Climbing FlightAware
02:51PM 38.1100 -120.8570 73° East 485 558 26,200 1,500 Climbing FlightAware
02:51PM 38.1320 -120.7640 73° East 490 564 27,000 1,260 Climbing FlightAware
02:52PM 38.1560 -120.6650 73° East 496 571 27,700 1,200 Climbing FlightAware
02:53PM 38.1800 -120.5650 73° East 500 575 28,500 1,500 Climbing FlightAware
02:53PM 38.2010 -120.4750 73° East 498 573 29,400 1,380 Climbing FlightAware
02:54PM 38.2250 -120.3720 73° East 502 578 30,100 1,140 Climbing FlightAware
02:54PM 38.2440 -120.2650 77° East 509 586 30,800 1,200 Climbing FlightAware
02:55PM 38.2590 -120.1700 79° East 509 586 31,500 1,080 Climbing FlightAware
02:56PM 38.2770 -120.0630 78° East 513 590 32,100 1,020 Climbing FlightAware
02:56PM 38.2930 -119.9690 78° East 517 595 32,700 1,140 Climbing FlightAware
02:57PM 38.3130 -119.8580 77° East 518 596 33,400 1,140 Climbing FlightAware
02:57PM 38.3290 -119.7620 78° East 515 593 34,100 1,320 Climbing FlightAware
02:58PM 38.3490 -119.6480 77° East 510 587 35,000 1,560 Climbing FlightAware
02:58PM 38.3640 -119.5570 78° East 503 579 35,900 1,140 Climbing FlightAware
02:59PM 38.3840 -119.4400 78° East 507 583 36,400 600 Climbing FlightAware
03:00PM 38.4010 -119.3390 78° East 512 589 36,700 540 Climbing FlightAware
03:00PM 38.4170 -119.2450 78° East 516 594 37,000 180 Climbing FlightAware
03:01PM 38.4370 -119.1260 78° East 516 594 37,000  Level FlightAware
03:02PM 38.4510 -119.0400 78° East 516 594 37,000  Level FlightAware
03:02PM 38.4660 -118.9520 78° East 516 594 37,000  Level FlightAware
03:03PM 38.4800 -118.8650 78° East 516 594 37,000  Level FlightAware
03:03PM 38.5040 -118.7040 79° East 525 604 37,000  Level FlightAware
03:04PM 38.5210 -118.6000 78° East 527 606 37,000  Level FlightAware
03:04PM 38.5380 -118.4870 79° East 530 610 37,000  Level FlightAware
03:05PM 38.5550 -118.3770 79° East 530 610 37,000  Level FlightAware
03:06PM 38.5720 -118.2660 79° East 531 611 37,000  Level FlightAware
03:06PM 38.5870 -118.1640 79° East 532 612 37,000  Level FlightAware
03:07PM 38.6050 -118.0490 79° East 533 613 37,000  Level FlightAware
03:08PM 38.6220 -117.9340 79° East 532 612 37,000  Level FlightAware
03:08PM 38.6370 -117.8360 79° East 532 612 37,000  Level FlightAware
03:09PM 38.6550 -117.7150 79° East 532 612 37,000  Level FlightAware
03:10PM 38.6710 -117.6130 79° East 532 612 37,000  Level FlightAware
03:10PM 38.6850 -117.5180 79° East 532 612 37,000  Level FlightAware
03:11PM 38.7050 -117.3870 79° East 532 612 37,000  Level FlightAware
03:12PM 38.7210 -117.2840 79° East 532 612 37,000  Level FlightAware
03:12PM 38.7350 -117.1890 79° East 532 612 37,000  Level FlightAware
03:13PM 38.7490 -117.0940 79° East 532 612 37,000  Level FlightAware
03:13PM 38.7640 -116.9990 79° East 532 612 37,000  Level FlightAware
03:14PM 38.7780 -116.9020 79° East 532 612 37,000  Level FlightAware
03:15PM 38.7930 -116.8070 79° East 532 612 37,000  Level FlightAware
03:15PM 38.8070 -116.7120 79° East 532 612 37,000  Level FlightAware
03:16PM 38.8210 -116.6170 79° East 532 612 37,000  Level FlightAware
03:16PM 38.8360 -116.5200 79° East 532 612 37,000  Level FlightAware
03:17PM 38.8717 -116.1633 79° East 516 594 37,000  Level Salt Lake Center
03:18PM 38.8964 -115.9806 80° East 519 597 37,000  Level Salt Lake Center
03:19PM 38.9253 -115.7606 80° East 520 598 37,000  Level Salt Lake Center
03:20PM 38.9494 -115.5769 80° East 521 600 37,000  Level Salt Lake Center
03:22PM 38.9725 -115.3914 81° East 524 603 37,000  Level Salt Lake Center
03:23PM 38.9964 -115.2175 80° East 528 608 37,000  Level Salt Lake Center
03:24PM 39.0236 -114.9950 81° East 527 606 37,000  Level Salt Lake Center
03:30PM 39.1580 -113.8534 81° East 534 615 37,000  Level FlightAware ADS-B
03:30PM 39.1700 -113.7430 82° East 533 613 37,000  Level FlightAware
03:30PM 39.1754 -113.6982 81° East 533 613 37,000  Level FlightAware ADS-B
03:31PM 39.1896 -113.5708 82° East 532 612 37,000  Level FlightAware ADS-B
03:32PM 39.2002 -113.4745 82° East 530 610 37,000  Level FlightAware ADS-B
03:33PM 39.2244 -113.2821 81° East 531 611 37,000  Level FlightAware ADS-B
03:33PM 39.2441 -113.1939 74° East 534 615 37,000  Level FlightAware ADS-B
03:34PM 39.2832 -113.0641 69° East 534 615 37,000  Level FlightAware ADS-B
03:34PM 39.2973 -113.0180 68° East 534 615 37,000  Level FlightAware ADS-B
03:35PM 39.3203 -112.9420 69° East 533 613 37,000  Level FlightAware ADS-B
03:35PM 39.3246 -112.9280 69° East 533 613 37,000  Level FlightAware ADS-B
03:35PM 39.3465 -112.8564 68° East 532 612 37,000  Level FlightAware ADS-B
03:35PM 39.3519 -112.8390 68° East 532 612 37,000  Level FlightAware ADS-B
03:36PM 39.3789 -112.7500 69° East 530 610 37,000  Level FlightAware ADS-B
03:36PM 39.3815 -112.7419 68° East 530 610 37,000  Level FlightAware ADS-B
03:36PM 39.4072 -112.6580 68° East 530 610 37,000  Level FlightAware ADS-B
03:36PM 39.4108 -112.6464 68° East 530 610 37,000  Level FlightAware ADS-B
03:37PM 39.4358 -112.5650 68° East 531 611 37,000  Level FlightAware ADS-B
03:37PM 39.4470 -112.5281 69° East 531 611 37,000  Level FlightAware ADS-B
03:37PM 39.4657 -112.4670 68° East 531 611 37,000  Level FlightAware ADS-B
03:38PM 39.4929 -112.3780 68° East 530 610 37,000  Level FlightAware ADS-B
03:38PM 39.5034 -112.3434 68° East 530 610 37,000  Level FlightAware ADS-B
03:38PM 39.5254 -112.2710 69° East 529 609 37,000  Level FlightAware ADS-B
03:39PM 39.5430 -112.2132 68° East 530 610 37,000  Level FlightAware ADS-B
03:39PM 39.5571 -112.1670 68° East 530 610 37,000  Level FlightAware ADS-B
03:39PM 39.5693 -112.1259 69° East 530 610 37,000  Level FlightAware ADS-B
03:40PM 39.5863 -112.0700 68° East 530 610 37,000  Level FlightAware ADS-B
03:40PM 39.5976 -112.0320 69° East 530 610 37,000  Level FlightAware ADS-B
03:40PM 39.6212 -111.9530 69° East 530 610 37,000  Level FlightAware ADS-B
03:40PM 39.6251 -111.9401 68° East 530 610 37,000  Level FlightAware ADS-B
03:41PM 39.6522 -111.8490 69° East 528 608 37,000  Level FlightAware ADS-B
03:41PM 39.6776 -111.7639 69° East 528 608 37,000  Level FlightAware ADS-B
03:42PM 39.7055 -111.6700 69° East 528 608 37,000  Level FlightAware ADS-B
03:42PM 39.7319 -111.5810 69° East 527 606 37,000  Level FlightAware ADS-B
03:42PM 39.7322 -111.5794 75° East 527 606 37,000  Level FlightAware ADS-B
03:43PM 39.7594 -111.4870 69° East 526 605 37,000  Level FlightAware ADS-B
03:43PM 39.7660 -111.4645 69° East 525 604 37,000  Level FlightAware ADS-B
03:43PM 39.7881 -111.3890 69° East 526 605 37,000  Level FlightAware ADS-B
03:44PM 39.7996 -111.3499 69° East 525 604 37,000  Level FlightAware ADS-B (KMTJ)
03:44PM 39.8140 -111.3010 69° East 525 604 37,000  Level FlightAware ADS-B
03:44PM 39.8336 -111.2335 69° East 526 605 37,000  Level FlightAware ADS-B
03:44PM 39.8404 -111.2100 69° East 525 604 37,000  Level FlightAware ADS-B
03:45PM 39.8612 -111.1384 69° East 524 603 37,000  Level FlightAware ADS-B (KMTJ)
03:45PM 39.8660 -111.1220 69° East 523 602 37,000  Level FlightAware ADS-B
03:45PM 39.8869 -111.0497 69° East 523 602 37,000  Level FlightAware ADS-B (KMTJ)
03:45PM 39.8922 -111.0310 70° East 522 601 37,000  Level FlightAware ADS-B
03:46PM 39.9158 -110.9496 69° East 522 601 37,000  Level FlightAware ADS-B (KMTJ)
03:46PM 39.9178 -110.9430 69° East 522 601 37,000  Level FlightAware ADS-B
03:46PM 39.9412 -110.8615 69° East 522 601 37,000  Level FlightAware ADS-B (KMTJ)
03:46PM 39.9441 -110.8510 70° East 522 601 37,000  Level FlightAware ADS-B
03:47PM 39.9687 -110.7654 69° East 522 601 37,000  Level FlightAware ADS-B (KMTJ)
03:47PM 39.9700 -110.7610 68° East 522 601 37,000  Level FlightAware ADS-B
03:47PM 39.9944 -110.6753 70° East 521 600 37,000  Level FlightAware ADS-B (KMTJ)
03:48PM 40.0211 -110.5816 70° East 520 598 37,000  Level FlightAware ADS-B (KMTJ)
03:48PM 40.0426 -110.5055 70° East 520 598 37,000  Level FlightAware ADS-B (KMTJ)
03:49PM 40.0764 -110.3863 70° East 519 597 37,000  Level FlightAware ADS-B (KMTJ)
03:50PM 40.1014 -110.2971 70° East 519 597 37,000  Level FlightAware ADS-B (KMTJ)
03:50PM 40.1270 -110.2059 70° East 519 597 37,000  Level FlightAware ADS-B (KMTJ)
03:51PM 40.1555 -110.1038 70° East 518 596 37,000  Level FlightAware ADS-B (KMTJ)
03:51PM 40.1854 -110.0017 69° East 518 596 37,000  Level FlightAware ADS-B (KMTJ)
03:52PM 40.2127 -109.9093 69° East 519 597 37,000  Level FlightAware ADS-B (KMTJ)
03:52PM 40.2481 -109.7881 69° East 518 596 37,000  Level FlightAware ADS-B (KMTJ)
03:53PM 40.2784 -109.6837 69° East 517 595 37,000  Level FlightAware ADS-B (KMTJ)
03:54PM 40.3050 -109.5900 70° East 517 595 37,000  Level FlightAware
03:54PM 40.3139 -109.5606 68° East 517 595 37,000  Level FlightAware ADS-B (KMTJ)
03:54PM 40.3381 -109.4763 69° East 518 596 37,000  Level FlightAware ADS-B (KMTJ)
03:55PM 40.3652 -109.3813 69° East 518 596 37,000  Level FlightAware ADS-B (KMTJ)
03:55PM 40.3920 -109.2874 69° East 518 596 37,000  Level FlightAware ADS-B (KMTJ)
03:56PM 40.4192 -109.1914 70° East 517 595 37,000  Level FlightAware ADS-B (KMTJ)
03:56PM 40.4444 -109.1022 70° East 517 595 37,000  Level FlightAware ADS-B (KMTJ)
03:57PM 40.4680 -109.0188 70° East 517 595 37,000  Level FlightAware ADS-B (KMTJ)
03:57PM 40.4992 -108.9075 70° East 516 594 37,000  Level FlightAware ADS-B (KMTJ)
03:58PM 40.5252 -108.8143 70° East 515 593 37,000  Level FlightAware ADS-B (KMTJ)
03:59PM 40.5575 -108.6987 70° East 515 593 37,000  Level FlightAware ADS-B (KMTJ)
03:59PM 40.5821 -108.6104 70° East 514 592 37,000  Level FlightAware ADS-B (KMTJ)
04:00PM 40.6063 -108.5227 70° East 514 592 37,000  Level FlightAware ADS-B (KMTJ)
04:00PM 40.6321 -108.4293 70° East 513 590 37,000  Level FlightAware ADS-B (KMTJ)
04:01PM 40.6563 -108.3410 70° East 513 590 37,000  Level FlightAware ADS-B (KMTJ)
04:01PM 40.6828 -108.2442 70° East 514 592 37,000  Level FlightAware ADS-B (KMTJ)
04:02PM 40.7068 -108.1564 70° East 515 593 37,000  Level FlightAware ADS-B (KMTJ)
04:02PM 40.7307 -108.0685 70° East 514 592 37,000  Level FlightAware ADS-B (KMTJ)
04:03PM 40.7548 -107.9792 70° East 513 590 37,000  Level FlightAware ADS-B (KMTJ)
04:03PM 40.7890 -107.8520 70° East 513 590 37,000  Level FlightAware
04:04PM 40.8204 -107.7355 70° East 513 590 37,000  Level FlightAware ADS-B (KMTJ)
04:05PM 40.8452 -107.6426 71° East 513 590 37,000  Level FlightAware ADS-B (KMTJ)
04:05PM 40.8666 -107.5622 71° East 512 589 37,000  Level FlightAware ADS-B (KMTJ)
04:06PM 40.9080 -107.4140 70° East 512 589 37,000  Level FlightAware
04:07PM 40.9330 -107.3210 70° East 512 589 37,000  Level FlightAware
04:07PM 40.9580 -107.2310 70° East 512 589 37,000  Level FlightAware
04:08PM 40.9830 -107.1410 70° East 512 589 37,000  Level FlightAware
04:09PM 41.0360 -106.9180 72° East 511 588 37,000  Level FlightAware
04:09PM 41.0640 -106.8080 71° East 511 588 37,000  Level FlightAware
04:10PM 41.0880 -106.7150 71° East 511 588 37,000  Level FlightAware
04:10PM 41.1120 -106.6210 71° East 511 588 37,000  Level FlightAware
04:11PM 41.1480 -106.4790 71° East 510 587 37,000  Level FlightAware
04:12PM 41.1720 -106.3870 71° East 509 586 37,000  Level FlightAware
04:12PM 41.2020 -106.2680 71° East 510 587 37,000  Level FlightAware
04:13PM 41.2270 -106.1650 72° East 511 588 37,000  Level FlightAware
04:13PM 41.2500 -106.0750 71° East 510 587 37,000  Level FlightAware
04:14PM 41.2730 -105.9820 72° East 510 587 37,000  Level FlightAware
04:15PM 41.2980 -105.8820 72° East 510 587 37,000  Level FlightAware
04:15PM 41.3310 -105.7500 72° East 509 586 37,000  Level FlightAware
04:16PM 41.3530 -105.6590 72° East 508 585 37,000  Level FlightAware
04:16PM 41.3830 -105.5470 70° East 506 582 37,000  Level FlightAware
04:17PM 41.4080 -105.4520 71° East 504 580 37,000  Level FlightAware
04:18PM 41.4330 -105.3520 72° East 500 575 37,000  Level FlightAware
04:18PM 41.4610 -105.2450 71° East 501 577 37,000  Level FlightAware
04:19PM 41.4880 -105.1370 72° East 501 577 37,000  Level FlightAware
04:19PM 41.5140 -105.0330 72° East 502 578 37,000  Level FlightAware
04:20PM 41.5380 -104.9380 71° East 503 579 37,000  Level FlightAware
04:21PM 41.5650 -104.8330 71° East 501 577 37,000  Level FlightAware
04:21PM 41.5910 -104.7290 71° East 500 575 37,000  Level FlightAware
04:22PM 41.6160 -104.6290 71° East 500 575 37,000  Level FlightAware
04:22PM 41.6410 -104.5270 72° East 498 573 37,000  Level FlightAware
04:23PM 41.6680 -104.4200 71° East 498 573 37,000  Level FlightAware
04:23PM 41.6940 -104.3140 72° East 498 573 37,000  Level FlightAware
04:24PM 41.7180 -104.2130 72° East 497 572 37,000  Level FlightAware
04:25PM 41.7420 -104.1160 72° East 497 572 37,000  Level FlightAware
04:25PM 41.7670 -104.0150 72° East 497 572 37,000  Level FlightAware
04:26PM 41.7920 -103.9080 73° East 497 572 37,000  Level FlightAware
04:26PM 41.8180 -103.8020 72° East 495 570 37,000  Level FlightAware
04:27PM 41.8400 -103.7090 72° East 495 570 37,000  Level FlightAware
04:28PM 41.8660 -103.6010 72° East 495 570 37,000  Level FlightAware
04:28PM 41.8920 -103.4840 73° East 494 568 37,000  Level FlightAware
04:29PM 41.9080 -103.3860 78° East 493 567 37,000  Level FlightAware
04:29PM 41.9240 -103.2840 78° East 493 567 37,000  Level FlightAware
04:30PM 41.9370 -103.1800 80° East 492 566 37,000  Level FlightAware
04:31PM 41.9510 -103.0800 79° East 492 566 37,000  Level FlightAware
04:31PM 41.9660 -102.9710 79° East 491 565 37,000  Level FlightAware
04:32PM 41.9800 -102.8690 80° East 491 565 37,000  Level FlightAware
04:32PM 41.9960 -102.7480 80° East 489 563 37,000  Level FlightAware
04:33PM 42.0110 -102.6430 79° East 489 563 37,000  Level FlightAware
04:34PM 42.0250 -102.5490 79° East 489 563 37,000  Level FlightAware
04:34PM 42.0380 -102.4580 79° East 489 563 37,000  Level FlightAware
04:35PM 42.0510 -102.3660 79° East 489 563 37,000  Level FlightAware
04:35PM 42.0640 -102.2750 79° East 489 563 37,000  Level FlightAware
04:36PM 42.0770 -102.1830 79° East 489 563 37,000  Level FlightAware
04:37PM 42.0910 -102.0920 78° East 489 563 37,000  Level FlightAware
04:37PM 42.1040 -101.9970 80° East 489 563 37,000  Level FlightAware
04:38PM 42.1170 -101.9060 79° East 489 563 37,000  Level FlightAware
04:38PM 42.1310 -101.8140 78° East 489 563 37,000  Level FlightAware
04:39PM 42.1440 -101.7230 79° East 489 563 37,000  Level FlightAware
04:40PM 42.1570 -101.6310 79° East 489 563 37,000  Level FlightAware
04:40PM 42.1700 -101.5390 79° East 489 563 37,000  Level FlightAware
04:41PM 42.1840 -101.4450 79° East 489 563 37,000  Level FlightAware
04:41PM 42.1970 -101.3530 79° East 489 563 37,000  Level FlightAware
04:42PM 42.2100 -101.2620 79° East 489 563 37,000  Level FlightAware
04:43PM 42.2347 -100.8617 79° East 477 549 37,000  Level Denver Center
04:44PM 42.2547 -100.6925 81° East 476 548 37,000  Level Denver Center
04:45PM 42.2786 -100.4936 81° East 479 551 37,000  Level Denver Center
04:46PM 42.2969 -100.3239 82° East 477 549 37,000  Level Denver Center
04:47PM 42.3194 -100.1275 81° East 476 548 37,000  Level Denver Center
04:48PM 42.3381 -99.9606 81° East 471 542 37,000  Level Denver Center
04:49PM 42.3569 -99.7947 81° East 468 539 37,000  Level Denver Center
04:50PM 42.3744 -99.6214 82° East 471 542 37,000  Level Denver Center
04:51PM 42.3958 -99.4150 82° East 463 533 37,000 300 Level Denver Center
04:57PM 42.5443 -98.4633 82° East 485 558 39,000 240 Climbing FlightAware ADS-B
04:58PM 42.6067 -98.2128 71° East 482 555 39,000  Level FlightAware ADS-B
04:59PM 42.6244 -98.1412 71° East 480 552 39,000  Level FlightAware ADS-B
05:02PM 42.7650 -97.6550 68° East 480 552 39,000  Level FlightAware
05:02PM 42.7970 -97.5460 68° East 480 552 39,000  Level FlightAware
05:03PM 42.8229 -97.4661 66° East 484 557 39,000  Level FlightAware ADS-B
05:03PM 42.8628 -97.3480 65° Northeast 486 559 39,000  Level FlightAware ADS-B
05:04PM 42.9000 -97.2380 65° Northeast 486 559 39,000  Level FlightAware
05:04PM 42.8791 -97.2996 245° Southwest 486 559 39,000  Level FlightAware ADS-B
05:05PM 42.9420 -97.1125 65° Northeast 490 564 39,000  Level FlightAware ADS-B
05:06PM 42.9880 -96.9800 65° Northeast 486 559 39,000  Level FlightAware
05:06PM 43.0190 -96.8600 71° East 490 564 39,000  Level FlightAware
05:07PM 43.0028 -96.9285 252° West 493 567 39,000  Level FlightAware ADS-B
05:07PM 43.0280 -96.6350 83° East 486 559 39,000  Level FlightAware
05:08PM 43.0251 -96.5343 92° East 488 562 39,000  Level FlightAware ADS-B
05:09PM 43.0230 -96.4140 91° East 489 563 39,000  Level FlightAware
05:09PM 43.0240 -96.4703 271° West 489 563 39,000  Level FlightAware ADS-B
05:10PM 43.0170 -96.1950 92° East 491 565 39,000  Level FlightAware
05:10PM 43.0140 -96.0960 92° East 491 565 39,000  Level FlightAware
05:11PM 43.0110 -95.9760 92° East 493 567 39,000  Level FlightAware
05:12PM 43.0070 -95.8640 93° East 493 567 39,000  Level FlightAware
05:12PM 43.0040 -95.7660 92° East 495 570 39,000  Level FlightAware
05:13PM 43.0010 -95.6590 92° East 497 572 39,000  Level FlightAware
05:13PM 43.0000 -95.6328 93° East 498 573 39,000  Level FlightAware ADS-B
05:13PM 42.9969 -95.5382 93° East 499 574 39,000  Level FlightAware ADS-B
05:14PM 42.9940 -95.4390 92° East 499 574 39,000  Level FlightAware
05:14PM 42.9916 -95.3777 93° East 500 575 39,000  Level FlightAware ADS-B
05:15PM 42.9860 -95.2110 93° East 501 577 39,000  Level FlightAware
05:16PM 42.9820 -95.1060 93° East 502 578 39,000  Level FlightAware
05:16PM 42.9780 -94.9870 93° East 502 578 39,000  Level FlightAware
05:17PM 42.9740 -94.8860 93° East 502 578 39,000  Level FlightAware
05:17PM 42.9710 -94.8114 93° East 504 580 39,000  Level FlightAware ADS-B
05:18PM 42.9662 -94.6907 93° East 504 580 39,000  Level FlightAware ADS-B
05:19PM 42.9600 -94.5500 93° East 503 579 39,000  Level FlightAware
05:19PM 42.9581 -94.4936 93° East 503 579 39,000  Level FlightAware ADS-B
05:20PM 42.9510 -94.3260 93° East 502 578 39,000  Level FlightAware
05:20PM 42.9460 -94.2150 93° East 502 578 39,000  Level FlightAware
05:21PM 42.9410 -94.1030 93° East 502 578 39,000  Level FlightAware
05:21PM 42.9369 -94.0106 93° East 503 579 39,000  Level FlightAware ADS-B
05:21PM 42.9360 -93.9904 94° East 502 578 39,000  Level FlightAware ADS-B
05:22PM 42.9321 -93.9067 94° East 501 577 39,000  Level FlightAware ADS-B
05:23PM 42.9265 -93.7900 94° East 499 574 39,000  Level FlightAware ADS-B
05:23PM 42.9210 -93.6720 94° East 498 573 39,000  Level FlightAware
05:24PM 42.9150 -93.5560 94° East 496 571 39,000  Level FlightAware
05:24PM 42.9100 -93.4480 94° East 494 568 39,000  Level FlightAware
05:25PM 42.9063 -93.3836 94° East 494 568 39,000  Level FlightAware ADS-B
05:25PM 42.9013 -93.2878 94° East 493 567 39,000  Level FlightAware ADS-B
05:26PM 42.8930 -93.1240 94° East 491 565 39,000  Level FlightAware
05:27PM 42.8884 -93.0463 95° East 491 565 39,000  Level FlightAware ADS-B
05:27PM 42.8828 -92.9434 94° East 490 564 39,000  Level FlightAware ADS-B
05:28PM 42.8752 -92.8081 94° East 490 564 39,000  Level FlightAware ADS-B
05:28PM 42.8690 -92.7000 94° East 489 563 39,000  Level FlightAware
05:29PM 42.8669 -92.6639 95° East 491 565 39,000  Level FlightAware ADS-B
05:29PM 42.8598 -92.5424 95° East 491 565 39,000  Level FlightAware ADS-B
05:30PM 42.8527 -92.4225 95° East 490 564 39,000  Level FlightAware ADS-B
05:31PM 42.8434 -92.2689 95° East 491 565 39,000  Level FlightAware ADS-B
05:31PM 42.8370 -92.1580 94° East 491 565 39,000  Level FlightAware
05:31PM 42.8359 -92.1478 99° East 492 566 39,000  Level FlightAware ADS-B
05:32PM 42.8300 -92.0540 95° East 491 565 39,000  Level FlightAware
05:32PM 42.8296 -92.0478 95° East 492 566 39,000  Level FlightAware ADS-B
05:33PM 42.8192 -91.8863 95° East 492 566 39,000  Level FlightAware ADS-B
05:33PM 42.8133 -91.7946 95° East 492 566 39,000  Level FlightAware ADS-B
05:34PM 42.8058 -91.6812 95° East 492 566 39,000  Level FlightAware ADS-B
05:34PM 42.7991 -91.5825 95° East 491 565 39,000  Level FlightAware ADS-B
05:35PM 42.7924 -91.4830 95° East 491 565 39,000  Level FlightAware ADS-B
05:36PM 42.7804 -91.3101 95° East 491 565 39,000  Level FlightAware ADS-B
05:36PM 42.7736 -91.2135 95° East 491 565 39,000  Level FlightAware ADS-B
05:37PM 42.7670 -91.1206 96° East 491 565 39,000  Level FlightAware ADS-B
05:38PM 42.7560 -90.9650 95° East 492 566 39,000  Level FlightAware
05:38PM 42.7490 -90.8670 96° East 492 566 39,000  Level FlightAware
05:39PM 42.7454 -90.8244 96° East 493 567 39,000  Level FlightAware ADS-B
05:40PM 42.7320 -90.6460 96° East 493 567 39,000  Level FlightAware
05:40PM 42.7240 -90.5450 96° East 493 567 39,000  Level FlightAware
05:41PM 42.7160 -90.4330 96° East 493 567 39,000  Level FlightAware
05:41PM 42.7070 -90.3210 96° East 493 567 39,000  Level FlightAware
05:42PM 42.7000 -90.2320 96° East 494 568 39,000  Level FlightAware
05:42PM 42.6930 -90.1400 96° East 494 568 39,000  Level FlightAware
05:43PM 42.6830 -90.0270 97° East 493 567 39,000  Level FlightAware
05:44PM 42.6750 -89.9180 96° East 493 567 39,000  Level FlightAware
05:44PM 42.6650 -89.8060 97° East 493 567 39,000  Level FlightAware
05:45PM 42.6560 -89.7000 97° East 492 566 39,000  Level FlightAware
05:45PM 42.6480 -89.5970 96° East 491 565 39,000  Level FlightAware
05:46PM 42.6380 -89.4840 97° East 490 564 39,000  Level FlightAware
05:46PM 42.6290 -89.3820 97° East 490 564 39,000  Level FlightAware
05:47PM 42.6190 -89.2690 97° East 489 563 39,000  Level FlightAware
05:48PM 42.6100 -89.1640 97° East 489 563 39,000  Level FlightAware
05:48PM 42.6020 -89.0740 97° East 488 562 39,000  Level FlightAware
05:49PM 42.5900 -88.9490 97° East 487 560 39,000  Level FlightAware
05:49PM 42.5820 -88.8520 96° East 486 559 39,000  Level FlightAware
05:50PM 42.5720 -88.7450 97° East 486 559 39,000  Level FlightAware
05:51PM 42.5610 -88.6330 98° East 485 558 39,000  Level FlightAware
05:51PM 42.5520 -88.5290 97° East 485 558 39,000  Level FlightAware
05:52PM 42.5420 -88.4260 97° East 484 557 39,000  Level FlightAware
05:52PM 42.5310 -88.3160 98° East 484 557 39,000  Level FlightAware
05:53PM 42.5220 -88.2230 97° East 483 556 39,000  Level FlightAware
05:53PM 42.5110 -88.1060 97° East 482 555 39,000  Level FlightAware
05:54PM 42.5020 -88.0090 97° East 483 556 39,000  Level FlightAware
05:55PM 42.5000 -87.9040 91° East 485 558 39,000  Level FlightAware
05:55PM 42.5000 -87.7940 90° East 485 558 39,000  Level FlightAware
05:56PM 42.5000 -87.6830 90° East 485 558 39,000  Level FlightAware
05:56PM 42.4990 -87.5660 91° East 484 557 39,000  Level FlightAware
05:57PM 42.4990 -87.4580 90° East 483 556 39,000  Level FlightAware
05:58PM 42.4980 -87.3460 91° East 483 556 39,000  Level FlightAware
05:58PM 42.4980 -87.2360 90° East 483 556 39,000  Level FlightAware
05:59PM 42.4970 -87.1430 91° East 483 556 39,000  Level FlightAware
05:59PM 42.4960 -87.0280 91° East 483 556 39,000  Level FlightAware
06:00PM 42.4950 -86.9360 91° East 484 557 39,000  Level FlightAware
06:01PM 42.4940 -86.8190 91° East 485 558 39,000  Level FlightAware
06:01PM 42.4930 -86.7160 91° East 485 558 39,000  Level FlightAware
06:02PM 42.4920 -86.6050 91° East 486 559 39,000  Level FlightAware
06:02PM 42.4910 -86.5000 91° East 486 559 39,000  Level FlightAware
06:03PM 42.4890 -86.3990 92° East 486 559 39,000  Level FlightAware
06:04PM 42.4880 -86.2890 91° East 486 559 39,000  Level FlightAware
06:04PM 42.4860 -86.1890 92° East 487 560 39,000  Level FlightAware
06:05PM 42.4840 -86.0660 91° East 487 560 39,000  Level FlightAware
06:05PM 42.4830 -85.9710 91° East 488 562 39,000  Level FlightAware
06:06PM 42.4810 -85.8530 91° East 489 563 39,000  Level FlightAware
06:06PM 42.4790 -85.7560 92° East 489 563 39,000  Level FlightAware
06:07PM 42.4770 -85.6510 91° East 489 563 39,000  Level FlightAware
06:08PM 42.4740 -85.5420 92° East 489 563 39,000  Level FlightAware
06:08PM 42.4720 -85.4310 91° East 490 564 39,000  Level FlightAware
06:09PM 42.4700 -85.3290 91° East 490 564 39,000  Level FlightAware
06:09PM 42.4670 -85.2170 92° East 490 564 39,000  Level FlightAware
06:10PM 42.4650 -85.1150 91° East 490 564 39,000  Level FlightAware
06:10PM 42.4620 -85.0110 92° East 490 564 39,000  Level FlightAware
06:11PM 42.4590 -84.9010 92° East 489 563 39,000  Level FlightAware
06:12PM 42.4560 -84.7960 92° East 489 563 39,000  Level FlightAware
06:12PM 42.4530 -84.6920 92° East 489 563 39,000  Level FlightAware
06:13PM 42.4500 -84.5840 92° East 488 562 39,000  Level FlightAware
06:13PM 42.4430 -84.4820 95° East 486 559 39,000  Level FlightAware
06:14PM 42.4360 -84.3620 94° East 487 560 39,000  Level FlightAware
06:15PM 42.4300 -84.2650 95° East 487 560 39,000  Level FlightAware
06:15PM 42.4230 -84.1530 95° East 488 562 39,000  Level FlightAware
06:16PM 42.4160 -84.0430 95° East 487 560 39,000  Level FlightAware
06:16PM 42.4100 -83.9350 94° East 487 560 39,000  Level FlightAware
06:17PM 42.4040 -83.8360 95° East 487 560 39,000  Level FlightAware
06:18PM 42.3970 -83.7290 95° East 487 560 39,000  Level FlightAware
06:18PM 42.3900 -83.6200 95° East 487 560 39,000  Level FlightAware
06:19PM 42.3830 -83.5080 95° East 488 562 39,000  Level FlightAware
06:19PM 42.3760 -83.4110 96° East 488 562 39,000  Level FlightAware
06:20PM 42.3690 -83.3040 95° East 489 563 39,000  Level FlightAware
06:20PM 42.3610 -83.1950 96° East 489 563 39,000  Level FlightAware
06:21PM 42.3540 -83.0920 95° East 490 564 39,000  Level FlightAware
06:22PM 42.3460 -82.9790 95° East 490 564 39,000  Level FlightAware
06:22PM 42.3400 -82.8920 95° East 490 564 39,000  Level FlightAware
06:23PM 42.3310 -82.7690 96° East 489 563 39,000  Level FlightAware
06:23PM 42.3230 -82.6600 96° East 489 563 39,000  Level FlightAware
06:24PM 42.3160 -82.5590 95° East 489 563 39,000  Level FlightAware
06:25PM 42.3080 -82.4520 96° East 489 563 39,000  Level FlightAware
06:25PM 42.2990 -82.3420 96° East 489 563 39,000  Level FlightAware
06:26PM 42.2920 -82.2510 96° East 489 563 39,000  Level FlightAware
06:26PM 42.2830 -82.1360 96° East 489 563 39,000  Level FlightAware
06:27PM 42.2760 -82.0410 96° East 489 563 39,000  Level FlightAware
06:27PM 42.2670 -81.9270 96° East 488 562 39,000  Level FlightAware
06:28PM 42.2570 -81.8120 97° East 489 563 39,000  Level FlightAware
06:29PM 42.2490 -81.7070 96° East 489 563 39,000  Level FlightAware
06:29PM 42.2410 -81.6080 96° East 490 564 39,000  Level FlightAware
06:30PM 42.2310 -81.4960 97° East 490 564 39,000  Level FlightAware
06:30PM 42.2220 -81.3920 97° East 490 564 39,000  Level FlightAware
06:31PM 42.2130 -81.2800 96° East 490 564 39,000  Level FlightAware
06:32PM 42.2040 -81.1820 97° East 490 564 39,000  Level FlightAware
06:32PM 42.1950 -81.0760 97° East 490 564 39,000  Level FlightAware
06:33PM 42.1850 -80.9640 97° East 490 564 39,000  Level FlightAware
06:33PM 42.1760 -80.8580 97° East 490 564 39,000  Level FlightAware
06:34PM 42.1670 -80.7580 97° East 490 564 39,000  Level FlightAware
06:34PM 42.1570 -80.6510 97° East 490 564 39,000  Level FlightAware
06:35PM 42.1470 -80.5410 97° East 490 564 39,000  Level FlightAware
06:36PM 42.1370 -80.4320 97° East 491 565 39,000  Level FlightAware
06:36PM 42.1280 -80.3350 97° East 491 565 39,000  Level FlightAware
06:37PM 42.1170 -80.2220 97° East 493 567 39,000  Level FlightAware
06:37PM 42.1060 -80.1140 98° East 493 567 39,000  Level FlightAware
06:38PM 42.0970 -80.0200 97° East 494 568 39,000  Level FlightAware
06:39PM 42.0860 -79.9090 98° East 494 568 39,000  Level FlightAware
06:39PM 42.0760 -79.8000 97° East 494 568 39,000  Level FlightAware
06:40PM 42.0650 -79.6910 98° East 495 570 39,000  Level FlightAware
06:40PM 42.0550 -79.5920 98° East 495 570 39,000  Level FlightAware
06:41PM 42.0440 -79.4820 98° East 496 571 39,000  Level FlightAware
06:41PM 42.0330 -79.3810 98° East 496 571 39,000  Level FlightAware
06:42PM 42.0220 -79.2750 98° East 496 571 39,000  Level FlightAware
06:43PM 42.0110 -79.1640 98° East 497 572 39,000  Level FlightAware
06:43PM 42.0000 -79.0600 98° East 497 572 39,000  Level FlightAware
06:44PM 41.9870 -78.9390 98° East 498 573 39,000  Level FlightAware
06:44PM 41.9770 -78.8500 99° East 498 573 39,000  Level FlightAware
06:45PM 41.9640 -78.7320 98° East 498 573 39,000  Level FlightAware
06:46PM 41.9520 -78.6210 98° East 498 573 39,000  Level FlightAware
06:46PM 41.9400 -78.5120 98° East 498 573 39,000  Level FlightAware
06:47PM 41.9300 -78.4170 98° East 498 573 39,000  Level FlightAware
06:47PM 41.9170 -78.3070 99° East 498 573 39,000  Level FlightAware
06:48PM 41.9060 -78.2100 99° East 498 573 39,000  Level FlightAware
06:48PM 41.8930 -78.0940 99° East 498 573 39,000  Level FlightAware
06:49PM 41.8810 -77.9870 99° East 498 573 39,000  Level FlightAware
06:50PM 41.8660 -77.8740 100° East 497 572 39,000  Level FlightAware
06:50PM 41.8470 -77.7810 105° East 493 567 39,000  Level FlightAware
06:51PM 41.8180 -77.6700 109° East 492 566 39,000  Level FlightAware
06:51PM 41.7930 -77.5790 110° East 493 567 39,000  Level FlightAware
06:52PM 41.7640 -77.4700 110° East 494 568 39,000  Level FlightAware
06:52PM 41.7390 -77.3770 110° East 494 568 39,000  Level FlightAware
06:53PM 41.7120 -77.2730 109° East 495 570 39,000  Level FlightAware
06:54PM 41.6840 -77.1730 111° Southeast 495 570 39,000  Level FlightAware
06:54PM 41.6590 -77.0780 109° East 496 571 39,000  Level FlightAware
06:55PM 41.6280 -76.9660 110° East 495 570 39,000  Level FlightAware
06:55PM 41.6030 -76.8740 110° East 496 571 39,000  Level FlightAware
06:56PM 41.5800 -76.7880 110° East 497 572 39,000  Level FlightAware
06:57PM 41.5450 -76.6620 110° East 497 572 39,000  Level FlightAware
06:57PM 41.5090 -76.5310 110° East 498 573 39,000  Level FlightAware
06:58PM 41.4840 -76.4410 110° East 498 573 39,000  Level FlightAware
06:59PM 41.4560 -76.3400 110° East 499 574 39,000 -360 Level FlightAware
06:59PM 41.4260 -76.2310 110° East 499 574 38,600 -1,620 Descending FlightAware
07:00PM 41.3940 -76.1180 111° Southeast 503 579 37,000 -2,580 Descending FlightAware
07:00PM 41.3680 -76.0260 111° Southeast 506 582 35,600 -2,820 Descending FlightAware
07:01PM 41.3390 -75.9220 110° East 510 587 33,800 -3,000 Descending FlightAware
07:01PM 41.3120 -75.8280 111° Southeast 514 592 32,200 -3,360 Descending FlightAware
07:02PM 41.2720 -75.6910 111° Southeast 520 598 29,500 -3,600 Descending FlightAware
07:03PM 41.2400 -75.5920 113° Southeast 523 602 27,400 -3,420 Descending FlightAware
07:03PM 41.2080 -75.4950 114° Southeast 517 595 25,700 -2,880 Descending FlightAware
07:04PM 41.1720 -75.3870 114° Southeast 506 582 24,000 -2,280 Descending FlightAware
07:05PM 41.1420 -75.2990 114° Southeast 499 574 23,100 -960 Descending FlightAware
07:05PM 41.1090 -75.2020 114° Southeast 496 571 23,000 -120 Descending FlightAware
07:06PM 41.0760 -75.1020 114° Southeast 499 574 23,000  Level FlightAware
07:06PM 41.0410 -75.0020 115° Southeast 501 577 23,000  Level FlightAware
07:07PM 41.0070 -74.8940 113° Southeast 500 575 23,000 -540 Level FlightAware
07:07PM 40.9880 -74.7940 104° East 493 567 22,400 -960 Descending FlightAware
07:08PM 40.9760 -74.6890 99° East 470 541 21,900 -1,140 Descending FlightAware
07:09PM 40.9670 -74.6050 98° East 450 518 21,200 -1,500 Descending FlightAware
07:09PM 40.9560 -74.5050 98° East 432 497 20,200 -1,320 Descending FlightAware
07:10PM 40.9470 -74.4180 98° East 407 468 19,700 -900 Descending FlightAware
07:10PM 40.9370 -74.3680 105° East 396 456 19,400 -780 Descending FlightAware
07:10PM 40.9250 -74.3380 118° Southeast 389 448 19,200 -540 Descending FlightAware
07:11PM 40.8920 -74.2820 128° Southeast 375 432 19,000 -240 Descending FlightAware
07:11PM 40.8560 -74.2200 128° Southeast 374 430 19,000 -660 Level FlightAware
07:12PM 40.8190 -74.1570 128° Southeast 370 426 18,300 -1,320 Descending FlightAware
07:12PM 40.7976 -74.1203 128° Southeast 367 422 17,800 -1,500 Descending FlightAware ADS-B
07:13PM 40.7805 -74.0915 128° Southeast 365 420 17,400 -1,620 Descending FlightAware ADS-B
07:13PM 40.7726 -74.0810 135° Southeast 363 418 17,200 -1,740 Descending FlightAware ADS-B
07:13PM 40.7415 -74.0576 150° Southeast 356 410 16,600 -1,620 Descending FlightAware ADS-B
07:13PM 40.7115 -74.0458 163° South 354 407 16,100 -1,500 Descending FlightAware ADS-B
07:14PM 40.6606 -74.0267 164° South 349 402 15,300 -1,440 Descending FlightAware ADS-B
07:15PM 40.5830 -73.9960 163° South 345 397 14,100 -1,440 Descending FlightAware
07:15PM 40.5240 -73.9740 164° South 336 387 13,200 -1,200 Descending FlightAware
07:16PM 40.4910 -73.9530 154° Southeast 334 384 12,900 -1,200 Descending FlightAware
07:16PM 40.4500 -73.9030 137° Southeast 331 381 12,000 -1,620 Descending FlightAware
07:17PM 40.4090 -73.8530 137° Southeast 320 368 11,000 -1,620 Descending FlightAware
07:18PM 40.3740 -73.8080 136° Southeast 310 357 10,100 -1,680 Descending FlightAware
07:18PM 40.3540 -73.7810 134° Southeast 308 354 9,500 -1,800 Descending FlightAware
07:18PM 40.3370 -73.7590 135° Southeast 307 353 9,000 -2,100 Descending FlightAware
07:19PM 40.3180 -73.7350 136° Southeast 304 350 8,300 -2,280 Descending FlightAware
07:19PM 40.3020 -73.7140 135° Southeast 303 349 7,700 -2,280 Descending FlightAware
07:19PM 40.2940 -73.6930 117° Southeast 300 345 7,200 -2,580 Descending FlightAware
07:19PM 40.2920 -73.6810 102° East 297 342 6,900 -2,220 Descending FlightAware
07:19PM 40.2920 -73.6730 90° East 295 339 6,800 -1,920 Descending FlightAware
07:20PM 40.2990 -73.6430 73° East 281 323 6,100 -2,340 Descending FlightAware
07:20PM 40.3130 -73.6250 44° Northeast 270 311 5,400 -2,400 Descending FlightAware
07:20PM 40.3330 -73.6080 33° Northeast 264 304 4,800 -1,680 Descending FlightAware
07:21PM 40.3600 -73.5870 31° Northeast 262 302 4,200 -1,380 Descending FlightAware
07:21PM 40.3700 -73.5790 31° Northeast 262 302 4,000 -420 Descending FlightAware
07:21PM 40.3940 -73.5620 28° Northeast 263 303 4,000  Level FlightAware
07:21PM 40.4170 -73.5440 31° Northeast 261 300 4,000  Level FlightAware
07:22PM 40.4420 -73.5250 30° Northeast 262 302 4,000  Level FlightAware
07:22PM 40.4540 -73.5150 32° Northeast 261 300 4,000  Level FlightAware
07:22PM 40.4760 -73.4990 29° Northeast 261 300 4,000  Level FlightAware
07:23PM 40.5010 -73.4790 31° Northeast 264 304 4,000  Level FlightAware
07:23PM 40.5130 -73.4700 30° Northeast 264 304 4,000  Level FlightAware
07:23PM 40.5310 -73.4580 27° Northeast 262 302 4,000  Level FlightAware
07:23PM 40.5360 -73.4570 North 260 299 4,000  Level FlightAware
07:23PM 40.5410 -73.4560 North 258 297 4,000  Level FlightAware
07:24PM 40.5710 -73.4620 351° North 258 297 4,000  Level FlightAware
07:24PM 40.5940 -73.4670 351° North 255 293 4,000  Level FlightAware
07:24PM 40.6080 -73.4710 348° North 255 293 4,000 -540 Level FlightAware
07:25PM 40.6380 -73.4780 350° North 252 290 3,700 -960 Descending FlightAware
07:25PM 40.6590 -73.4820 352° North 251 289 3,300 -1,380 Descending FlightAware
07:25PM 40.6680 -73.4860 341° North 249 287 3,100 -900 Descending FlightAware
07:25PM 40.6790 -73.4960 325° Northwest 244 281 3,000 -240 Descending FlightAware
07:26PM 40.6920 -73.5160 311° West 236 272 3,000  Level FlightAware
07:26PM 40.7040 -73.5380 306° West 217 250 3,000  Level FlightAware
07:26PM 40.7160 -73.5570 310° West 203 234 3,000 -240 Level FlightAware
07:27PM 40.7260 -73.5650 329° Northwest 196 226 2,900 -600 Descending FlightAware
07:27PM 40.7420 -73.5770 330° Northwest 185 213 2,700 -540 Descending FlightAware
07:27PM 40.7530 -73.5850 331° Northwest 178 205 2,600 -540 Descending FlightAware
07:28PM 40.7670 -73.5960 329° Northwest 173 199 2,400 -660 Descending FlightAware
07:28PM 40.7720 -73.6010 323° Northwest 171 197 2,300 -1,080 Descending FlightAware
07:28PM 40.7760 -73.6110 298° West 168 193 2,100 -900 Descending FlightAware
07:28PM 40.7760 -73.6150 270° West 169 194 2,100 -240 Level FlightAware
07:28PM 40.7720 -73.6370 257° West 178 205 2,000 -180 Descending FlightAware
07:29PM 40.7680 -73.6530 252° West 179 206 2,000  Level FlightAware
07:29PM 40.7600 -73.6630 223° Southwest 185 213 2,000  Level FlightAware
07:29PM 40.7520 -73.6710 217° Southwest 188 216 2,000 -180 Level FlightAware
07:29PM 40.7360 -73.6840 212° Southwest 177 204 1,900 -540 Descending FlightAware
07:30PM 40.7200 -73.6960 210° Southwest 160 184 1,600 -720 Descending FlightAware
07:30PM 40.7080 -73.7050 210° Southwest 145 167 1,400 -600 Descending FlightAware
07:30PM 40.7020 -73.7110 217° Southwest 139 160 1,300 -720 Descending FlightAware
07:31PM 40.6890 -73.7210 210° Southwest 138 159 1,000 -840 Descending FlightAware
07:31PM 40.6760 -73.7300 208° Southwest 136 157 700 -780 Descending FlightAware
07:31PM 40.6700 -73.7350 212° Southwest 137 158 600 -600 Descending FlightAware
07:32PM 40.6590 -73.7440 212° Southwest 138 159 400 -780 Descending FlightAware
07:32PM 40.6480 -73.7530 212° Southwest 134 154 100 -900 Descending FlightAware
07:32PM 40.6360 -73.7620 210° Southwest 110 127 -300 Descending FlightAware